Time;durP1;ratioP1;P1;durP2;ratioP2;P2;SDS_P1;SDS_P2;PMS_P1;PMS_P2;Temp;Humidity;BMP_temperature;BMP_pressure;BME280_temperature;BME280_humidity;BME280_pressure;Samples;Min_cycle;Max_cycle;Signal;HPM_P1;HPM_P2
2023/06/24 00:01:44;;;;;;;6.80;6.10;;;19.00;1.00;;;;;;5036110;28;20495;-82
2023/06/24 00:04:14;;;;;;;7.17;6.17;;;19.00;1.00;;;;;;5031391;28;20459;-81
2023/06/24 00:06:42;;;;;;;7.27;6.13;;;18.90;5.00;;;;;;5036525;28;20460;-80
2023/06/24 00:09:08;;;;;;;6.70;6.00;;;18.90;14.80;;;;;;5037852;28;20480;-79
2023/06/24 00:11:35;;;;;;;7.53;5.97;;;18.90;1.00;;;;;;5040186;28;21029;-82
2023/06/24 00:14:04;;;;;;;8.07;7.17;;;18.90;1.00;;;;;;5038515;28;21043;-80
2023/06/24 00:16:31;;;;;;;7.30;6.17;;;18.90;1.00;;;;;;5038565;28;20459;-82
2023/06/24 00:19:00;;;;;;;8.63;6.30;;;18.80;3.50;;;;;;5040758;28;20552;-80
2023/06/24 00:21:29;;;;;;;7.43;6.30;;;18.80;18.70;;;;;;5048249;28;20522;-80
2023/06/24 00:23:57;;;;;;;6.93;5.70;;;18.80;23.40;;;;;;5049599;28;20458;-82
2023/06/24 00:26:24;;;;;;;6.87;6.03;;;18.70;35.40;;;;;;5039751;28;20459;-82
2023/06/24 00:28:51;;;;;;;7.90;6.87;;;18.70;40.50;;;;;;5040019;28;20484;-81
2023/06/24 00:31:20;;;;;;;8.50;6.20;;;18.70;26.30;;;;;;5040859;28;20444;-82
2023/06/24 00:33:47;;;;;;;12.50;6.20;;;18.70;28.00;;;;;;5040371;28;20457;-82
2023/06/24 00:36:14;;;;;;;6.87;6.10;;;18.70;33.30;;;;;;5040982;28;20444;-83
2023/06/24 00:38:41;;;;;;;7.17;5.90;;;18.70;39.40;;;;;;5041154;28;20543;-83
2023/06/24 00:41:08;;;;;;;9.07;6.43;;;18.60;50.80;;;;;;5040713;28;20488;-82
2023/06/24 00:43:35;;;;;;;6.80;5.90;;;18.60;59.20;;;;;;5040976;28;20448;-82
2023/06/24 00:46:02;;;;;;;6.27;5.63;;;18.60;80.60;;;;;;5039649;28;21631;-82
2023/06/24 00:48:31;;;;;;;8.00;6.83;;;18.60;74.40;;;;;;5040914;28;20467;-81
2023/06/24 00:50:59;;;;;;;6.70;6.00;;;18.60;55.90;;;;;;5040640;28;20459;-83
2023/06/24 00:53:26;;;;;;;9.53;7.27;;;18.60;64.00;;;;;;5040462;28;20957;-81
2023/06/24 00:55:54;;;;;;;8.20;6.80;;;18.50;79.80;;;;;;5039258;28;20479;-83
2023/06/24 00:58:21;;;;;;;7.20;6.27;;;18.50;61.00;;;;;;5039622;28;20452;-81
2023/06/24 01:00:56;;;;;;;6.70;5.87;;;18.50;69.30;;;;;;5039909;28;20495;-82
2023/06/24 01:03:24;;;;;;;6.63;5.93;;;18.50;89.80;;;;;;5040641;28;20455;-82
2023/06/24 01:05:54;;;;;;;7.07;6.37;;;18.40;98.50;;;;;;5039378;28;20559;-83
2023/06/24 01:08:22;;;;;;;8.57;6.23;;;18.40;99.90;;;;;;5039812;28;20463;-83
2023/06/24 01:10:49;;;;;;;7.63;6.20;;;18.40;99.90;;;;;;5039820;28;20445;-81
2023/06/24 01:13:17;;;;;;;8.13;6.10;;;18.40;99.90;;;;;;5037047;28;20564;-81
2023/06/24 01:15:44;;;;;;;6.50;5.80;;;18.40;99.90;;;;;;5038640;28;20543;-82
2023/06/24 01:18:16;;;;;;;7.40;6.60;;;18.30;99.90;;;;;;5023313;28;20464;-82
2023/06/24 01:20:50;;;;;;;7.00;6.20;;;18.30;99.90;;;;;;5038517;28;20955;-82
2023/06/24 01:23:59;;;;;;;6.47;5.83;;;18.30;99.90;;;;;;5039460;28;20459;-82
2023/06/24 01:26:42;;;;;;;6.87;5.13;;;18.30;99.90;;;;;;5003548;28;20456;-82
2023/06/24 01:29:44;;;;;;;7.77;6.10;;;18.20;99.90;;;;;;5031724;28;20495;-81
2023/06/24 01:32:18;;;;;;;6.53;5.90;;;18.20;99.90;;;;;;5031049;28;20503;-82
2023/06/24 01:34:54;;;;;;;7.53;5.60;;;18.20;99.90;;;;;;5039314;28;20461;-82
2023/06/24 01:37:26;;;;;;;6.93;5.77;;;18.20;99.90;;;;;;5039315;28;20467;-82
2023/06/24 01:40:07;;;;;;;6.00;5.43;;;18.20;99.90;;;;;;5038849;28;20483;-83
2023/06/24 01:42:38;;;;;;;5.63;5.13;;;18.20;99.90;;;;;;5038987;28;20436;-83
2023/06/24 01:45:07;;;;;;;6.50;5.90;;;18.20;99.90;;;;;;5039064;28;20449;-83
2023/06/24 01:47:36;;;;;;;7.83;6.07;;;18.20;99.90;;;;;;5036081;28;20449;-82
2023/06/24 01:50:05;;;;;;;9.87;6.87;;;18.20;99.90;;;;;;5037789;28;20481;-83
2023/06/24 01:52:33;;;;;;;6.23;5.63;;;18.10;99.90;;;;;;5039101;28;20441;-83
2023/06/24 01:55:01;;;;;;;6.70;5.50;;;18.10;99.90;;;;;;5034532;28;20475;-81
2023/06/24 01:57:31;;;;;;;6.93;6.10;;;18.10;99.90;;;;;;5038115;28;20458;-83
2023/06/24 01:59:58;;;;;;;6.60;6.00;;;18.10;99.90;;;;;;5038929;28;20471;-82
2023/06/24 02:02:27;;;;;;;6.57;5.70;;;18.10;99.90;;;;;;5040536;28;20511;-83
2023/06/24 02:04:57;;;;;;;7.20;6.50;;;18.00;99.90;;;;;;5038059;28;20460;-84
2023/06/24 02:07:27;;;;;;;6.70;6.00;;;18.00;99.90;;;;;;5038838;28;20453;-84
2023/06/24 02:09:55;;;;;;;9.83;5.87;;;18.00;99.90;;;;;;5039619;28;20497;-84
2023/06/24 02:12:22;;;;;;;8.03;6.10;;;18.00;99.90;;;;;;5038523;28;20966;-83
2023/06/24 02:14:51;;;;;;;7.80;7.00;;;18.00;99.90;;;;;;5033474;28;20467;-83
2023/06/24 02:17:19;;;;;;;9.20;6.27;;;18.00;99.90;;;;;;5033688;28;20955;-84
2023/06/24 02:19:48;;;;;;;6.60;5.43;;;18.00;99.90;;;;;;5041418;28;20556;-81
2023/06/24 02:22:17;;;;;;;6.57;5.53;;;18.00;99.90;;;;;;5054721;28;20575;-83
2023/06/24 02:24:45;;;;;;;9.70;6.17;;;17.90;99.90;;;;;;5037414;28;20472;-84
2023/06/24 02:27:12;;;;;;;7.07;6.37;;;17.90;99.90;;;;;;5030549;28;20949;-82
2023/06/24 02:29:41;;;;;;;6.73;5.93;;;17.90;99.90;;;;;;5037694;28;20489;-83
2023/06/24 02:32:09;;;;;;;6.90;5.90;;;17.90;99.90;;;;;;5033938;28;20509;-82
2023/06/24 02:34:36;;;;;;;6.43;5.70;;;17.90;99.90;;;;;;5036223;28;20515;-82
2023/06/24 02:37:03;;;;;;;8.13;5.90;;;17.90;99.90;;;;;;5036566;28;20456;-81
2023/06/24 02:39:31;;;;;;;7.17;5.90;;;17.80;99.90;;;;;;5029569;28;20490;-81
2023/06/24 02:41:58;;;;;;;8.80;6.17;;;17.90;99.90;;;;;;5034830;28;20491;-80
2023/06/24 02:44:25;;;;;;;8.43;5.47;;;17.80;99.90;;;;;;5036717;28;20459;-82
2023/06/24 02:46:54;;;;;;;7.83;6.70;;;17.80;99.90;;;;;;5035197;28;20522;-83
2023/06/24 02:49:22;;;;;;;7.60;6.17;;;17.90;99.90;;;;;;5035823;28;20485;-82
2023/06/24 02:51:49;;;;;;;6.30;5.70;;;17.80;99.90;;;;;;5035048;28;20470;-81
2023/06/24 02:54:17;;;;;;;6.90;5.67;;;17.80;99.90;;;;;;5035826;28;20979;-81
2023/06/24 02:56:45;;;;;;;6.97;5.93;;;17.80;99.90;;;;;;5035065;28;20452;-82
2023/06/24 02:59:12;;;;;;;7.00;5.50;;;17.80;99.90;;;;;;5036004;28;20906;-82
2023/06/24 03:01:44;;;;;;;8.13;6.33;;;17.80;99.90;;;;;;5035748;28;21027;-79
2023/06/24 03:04:11;;;;;;;8.90;7.07;;;17.80;99.90;;;;;;5028068;28;20494;-81
2023/06/24 03:06:39;;;;;;;6.57;5.53;;;17.80;99.90;;;;;;5035123;28;20964;-81
2023/06/24 03:09:07;;;;;;;6.73;5.83;;;17.80;99.90;;;;;;5035722;28;20502;-81
2023/06/24 03:11:41;;;;;;;7.57;6.70;;;17.80;99.90;;;;;;5035055;28;20466;-81
2023/06/24 03:14:10;;;;;;;6.47;5.60;;;17.80;99.90;;;;;;5035152;28;20814;-81
2023/06/24 03:16:38;;;;;;;7.53;6.37;;;17.80;99.90;;;;;;5033787;28;20452;-82
2023/06/24 03:19:05;;;;;;;10.57;6.77;;;17.70;99.90;;;;;;5034900;28;20482;-81
2023/06/24 03:21:32;;;;;;;7.20;5.47;;;17.70;99.90;;;;;;5034688;28;20514;-81
2023/06/24 03:23:59;;;;;;;6.83;6.00;;;17.70;99.90;;;;;;5035430;28;20457;-81
2023/06/24 03:26:32;;;;;;;6.63;6.00;;;17.70;99.90;;;;;;5033880;28;20556;-81
2023/06/24 03:28:59;;;;;;;7.00;5.73;;;17.70;99.90;;;;;;5037866;28;20480;-82
2023/06/24 03:31:27;;;;;;;6.27;5.40;;;17.70;99.90;;;;;;5038015;28;20460;-81
2023/06/24 03:33:54;;;;;;;6.13;5.53;;;17.70;99.90;;;;;;5037208;28;20452;-82
2023/06/24 03:36:21;;;;;;;6.67;6.03;;;17.70;99.90;;;;;;5038915;28;20550;-82
2023/06/24 03:38:48;;;;;;;9.40;6.63;;;17.70;99.90;;;;;;5041127;28;20565;-83
2023/06/24 03:41:14;;;;;;;6.43;5.73;;;17.70;99.90;;;;;;5041183;28;20551;-82
2023/06/24 03:43:43;;;;;;;6.83;6.23;;;17.70;99.90;;;;;;5053916;28;20532;-82
2023/06/24 03:46:10;;;;;;;6.83;5.50;;;17.80;99.90;;;;;;5052889;28;20440;-81
2023/06/24 03:48:38;;;;;;;6.20;5.00;;;17.80;99.90;;;;;;5031846;28;21017;-82
2023/06/24 03:51:05;;;;;;;9.13;6.67;;;17.80;99.90;;;;;;5022943;28;20480;-82
2023/06/24 03:53:32;;;;;;;7.00;6.17;;;17.80;99.90;;;;;;5028516;28;20462;-83
2023/06/24 03:55:59;;;;;;;6.67;5.70;;;17.90;99.90;;;;;;5038012;28;20469;-83
2023/06/24 03:58:26;;;;;;;6.47;5.77;;;18.00;99.90;;;;;;5038706;28;20540;-84
2023/06/24 04:00:56;;;;;;;5.80;5.20;;;18.00;99.90;;;;;;5038844;28;20455;-84
2023/06/24 04:03:25;;;;;;;6.00;5.40;;;18.10;99.90;;;;;;5037568;28;20510;-82
2023/06/24 04:05:54;;;;;;;6.50;5.80;;;18.20;99.90;;;;;;5036155;28;20453;-83
2023/06/24 04:08:21;;;;;;;6.67;5.77;;;18.30;99.90;;;;;;5036111;28;20463;-84
2023/06/24 04:10:47;;;;;;;7.10;6.17;;;18.30;99.90;;;;;;5039627;28;20461;-84
2023/06/24 04:13:14;;;;;;;6.10;5.50;;;18.40;99.90;;;;;;5038611;28;20928;-84
2023/06/24 04:15:41;;;;;;;6.60;6.00;;;18.50;99.90;;;;;;5038546;28;20547;-85
2023/06/24 04:18:09;;;;;;;7.30;6.27;;;18.60;99.90;;;;;;5039446;28;20483;-84
2023/06/24 04:20:36;;;;;;;6.33;5.53;;;18.70;99.90;;;;;;5051500;28;20480;-81
2023/06/24 04:23:05;;;;;;;6.90;5.67;;;18.70;99.90;;;;;;5042597;28;20542;-82
2023/06/24 04:25:32;;;;;;;6.03;5.30;;;18.80;99.90;;;;;;5035662;28;21015;-83
2023/06/24 04:27:59;;;;;;;7.80;6.60;;;18.90;99.90;;;;;;5035660;28;20453;-82
2023/06/24 04:30:26;;;;;;;7.73;5.47;;;18.90;99.90;;;;;;5035226;28;21008;-83
2023/06/24 04:32:52;;;;;;;6.10;5.50;;;19.00;99.90;;;;;;5037856;28;20456;-82
2023/06/24 04:35:19;;;;;;;6.83;5.40;;;19.00;99.90;;;;;;5037422;28;20621;-82
2023/06/24 04:37:46;;;;;;;6.27;5.67;;;19.00;99.90;;;;;;5035977;28;20543;-84
2023/06/24 04:40:14;;;;;;;6.50;5.90;;;19.00;99.90;;;;;;5036859;28;20478;-82
2023/06/24 04:42:41;;;;;;;7.57;5.87;;;19.10;99.90;;;;;;5036414;28;20535;-82
2023/06/24 04:45:09;;;;;;;11.20;6.00;;;19.10;99.90;;;;;;5036519;28;20464;-82
2023/06/24 04:47:35;;;;;;;8.03;5.87;;;19.20;96.80;;;;;;5035283;28;20457;-81
2023/06/24 04:50:02;;;;;;;6.90;6.10;;;19.20;71.00;;;;;;5035909;28;20468;-82
2023/06/24 04:52:29;;;;;;;10.47;6.40;;;19.30;96.80;;;;;;5036016;28;20440;-81
2023/06/24 04:54:56;;;;;;;5.60;5.10;;;19.40;99.90;;;;;;5036997;28;20456;-83
2023/06/24 04:57:29;;;;;;;7.00;6.30;;;19.40;99.90;;;;;;5036321;28;20455;-83
2023/06/24 04:59:57;;;;;;;7.43;6.10;;;19.50;99.90;;;;;;5036072;28;20556;-81
2023/06/24 05:02:23;;;;;;;6.40;5.50;;;19.50;66.60;;;;;;5035858;28;20495;-81
2023/06/24 05:04:52;;;;;;;6.17;5.27;;;19.60;65.90;;;;;;5038710;28;20834;-82
2023/06/24 05:07:19;;;;;;;7.33;6.20;;;19.60;58.80;;;;;;5038054;28;20448;-82
2023/06/24 05:09:47;;;;;;;7.30;5.67;;;19.70;65.50;;;;;;5038546;28;20472;-83
2023/06/24 05:12:14;;;;;;;5.60;4.97;;;19.70;72.60;;;;;;5038925;28;20448;-82
2023/06/24 05:14:42;;;;;;;12.20;6.07;;;19.80;85.80;;;;;;5038504;28;20971;-83
2023/06/24 05:17:09;;;;;;;6.50;5.90;;;19.90;45.90;;;;;;5038179;28;20464;-82
2023/06/24 05:19:36;;;;;;;6.33;4.60;;;19.90;23.40;;;;;;5034091;28;20548;-83
2023/06/24 05:22:03;;;;;;;5.63;5.13;;;19.90;21.40;;;;;;5039153;28;20495;-83
2023/06/24 05:24:30;;;;;;;7.70;5.20;;;20.00;10.70;;;;;;5036004;28;20524;-83
2023/06/24 05:26:57;;;;;;;6.37;5.77;;;20.00;2.30;;;;;;5039837;28;20457;-83
2023/06/24 05:29:23;;;;;;;6.37;5.20;;;20.00;21.30;;;;;;5070004;22;20497;-81
2023/06/24 05:31:52;;;;;;;8.87;5.80;;;20.00;1.00;;;;;;5082816;28;20451;-83
2023/06/24 05:34:18;;;;;;;6.37;5.37;;;20.10;1.00;;;;;;5087293;28;20530;-82
2023/06/24 05:36:45;;;;;;;7.50;5.10;;;20.10;22.90;;;;;;5083377;28;20452;-83
2023/06/24 05:39:12;;;;;;;5.90;5.20;;;20.20;15.40;;;;;;5071414;28;20530;-83
2023/06/24 05:41:39;;;;;;;5.47;4.97;;;20.20;18.20;;;;;;5077501;28;20567;-82
2023/06/24 05:44:09;;;;;;;6.33;5.40;;;20.20;8.10;;;;;;5076811;28;20463;-83
2023/06/24 05:46:36;;;;;;;5.10;4.60;;;20.20;26.90;;;;;;5074715;28;20448;-82
2023/06/24 05:49:05;;;;;;;6.50;5.70;;;20.30;30.00;;;;;;5080343;28;20470;-84
2023/06/24 05:51:32;;;;;;;5.50;5.00;;;20.30;27.10;;;;;;5083194;28;20490;-84
2023/06/24 05:53:58;;;;;;;5.83;5.33;;;20.40;2.60;;;;;;5084344;28;20907;-84
2023/06/24 05:56:26;;;;;;;7.93;5.03;;;20.40;3.60;;;;;;5077245;28;20523;-84
2023/06/24 05:58:53;;;;;;;5.23;4.60;;;20.50;1.00;;;;;;5062950;28;20491;-84
2023/06/24 06:01:20;;;;;;;6.20;5.60;;;20.60;1.00;;;;;;5063133;28;20472;-84
2023/06/24 06:03:47;;;;;;;5.30;4.60;;;20.80;1.00;;;;;;5069719;28;20510;-83
2023/06/24 06:06:15;;;;;;;6.70;5.10;;;21.00;1.00;;;;;;5081779;28;20457;-84
2023/06/24 06:08:42;;;;;;;5.50;4.50;;;21.10;1.00;;;;;;5070146;28;20450;-85
2023/06/24 06:11:09;;;;;;;6.00;5.03;;;21.10;1.00;;;;;;5062359;28;20854;-84
2023/06/24 06:13:36;;;;;;;11.27;5.60;;;21.10;79.10;;;;;;5078138;28;20515;-84
2023/06/24 06:16:02;;;;;;;6.17;4.63;;;21.10;99.90;;;;;;5071727;28;20903;-84
2023/06/24 06:18:29;;;;;;;9.80;5.20;;;21.20;1.00;;;;;;5063740;28;20983;-84
2023/06/24 06:20:56;;;;;;;5.10;4.40;;;21.10;99.90;;;;;;5074875;28;20537;-84
2023/06/24 06:23:25;;;;;;;4.93;4.03;;;21.20;1.00;;;;;;5077571;28;20494;-83
2023/06/24 06:25:52;;;;;;;5.80;5.20;;;21.20;1.00;;;;;;5064706;28;20542;-84
2023/06/24 06:28:19;;;;;;;7.13;4.47;;;21.30;99.90;;;;;;5074202;28;20547;-85
2023/06/24 06:30:47;;;;;;;5.60;4.23;;;21.40;98.40;;;;;;5058654;28;20918;-84
2023/06/24 06:33:14;;;;;;;7.27;4.70;;;21.40;99.90;;;;;;5063413;28;20459;-84
2023/06/24 06:35:41;;;;;;;6.93;4.60;;;21.50;1.00;;;;;;5072420;28;20539;-83
2023/06/24 06:38:08;;;;;;;6.03;5.43;;;21.60;1.00;;;;;;5059751;28;20486;-84
2023/06/24 06:40:36;;;;;;;8.63;4.60;;;21.50;99.90;;;;;;5064950;28;20994;-83
2023/06/24 06:43:03;;;;;;;5.73;5.00;;;21.60;99.90;;;;;;5077344;28;20501;-81
2023/06/24 06:45:30;;;;;;;6.20;5.20;;;21.60;1.00;;;;;;5092988;28;20500;-82
2023/06/24 06:47:57;;;;;;;6.73;5.50;;;21.60;99.90;;;;;;5083351;28;20530;-83
2023/06/24 06:50:23;;;;;;;7.30;6.03;;;21.60;99.90;;;;;;5071789;28;20546;-83
2023/06/24 06:52:50;;;;;;;8.27;6.77;;;21.60;1.00;;;;;;5075185;28;20997;-84
2023/06/24 06:55:17;;;;;;;6.07;5.47;;;21.80;99.90;;;;;;5076765;28;20546;-81
2023/06/24 06:57:45;;;;;;;7.30;5.47;;;22.00;1.00;;;;;;5072509;28;20958;-82
2023/06/24 07:00:13;;;;;;;7.80;6.90;;;22.10;99.90;;;;;;5077221;28;20570;-82
2023/06/24 07:02:40;;;;;;;7.77;6.50;;;22.10;99.90;;;;;;5079243;28;20475;-82
2023/06/24 07:05:09;;;;;;;7.57;6.77;;;22.10;99.90;;;;;;5079844;28;20514;-81
2023/06/24 07:07:37;;;;;;;6.97;6.33;;;22.10;1.00;;;;;;5076251;28;20450;-81
2023/06/24 07:10:04;;;;;;;9.33;5.90;;;22.20;1.00;;;;;;5080418;28;20479;-81
2023/06/24 07:12:31;;;;;;;8.80;6.80;;;22.20;99.90;;;;;;5080565;28;20450;-82
2023/06/24 07:14:59;;;;;;;8.23;6.50;;;22.30;99.90;;;;;;5080811;28;21024;-82
2023/06/24 07:17:26;;;;;;;8.73;7.13;;;22.40;99.90;;;;;;5079158;28;20542;-82
2023/06/24 07:19:53;;;;;;;9.47;6.60;;;22.30;1.00;;;;;;5079801;28;20475;-82
2023/06/24 07:22:20;;;;;;;8.27;6.50;;;22.30;1.00;;;;;;5079305;28;21077;-84
2023/06/24 07:24:47;;;;;;;8.67;6.20;;;22.50;99.90;;;;;;5080174;28;20455;-82
2023/06/24 07:27:14;;;;;;;9.83;6.30;;;22.50;1.00;;;;;;5078532;28;20450;-84
2023/06/24 07:29:41;;;;;;;10.40;6.20;;;22.60;1.00;;;;;;5078083;28;21038;-82
2023/06/24 07:32:10;;;;;;;11.40;7.50;;;22.60;1.00;;;;;;5079103;28;20454;-82
2023/06/24 07:34:37;;;;;;;7.97;6.57;;;22.70;1.00;;;;;;5078998;28;20488;-83
2023/06/24 07:37:04;;;;;;;9.03;6.90;;;22.80;99.90;;;;;;5079017;28;21025;-81
2023/06/24 07:39:31;;;;;;;7.60;6.63;;;22.90;99.90;;;;;;5077286;28;20486;-82
2023/06/24 07:41:57;;;;;;;12.53;8.63;;;23.00;18.80;;;;;;5075727;28;20451;-82
2023/06/24 07:44:24;;;;;;;8.87;6.80;;;23.10;1.00;;;;;;5071600;28;20938;-82
2023/06/24 07:46:51;;;;;;;7.93;6.90;;;23.30;1.00;;;;;;5075315;28;20447;-81
2023/06/24 07:49:19;;;;;;;9.93;7.40;;;23.40;99.90;;;;;;5077766;28;20479;-81
2023/06/24 07:51:46;;;;;;;8.37;7.03;;;23.40;99.90;;;;;;5064388;28;20542;-82
2023/06/24 07:54:13;;;;;;;13.10;8.87;;;23.50;99.90;;;;;;5073623;28;20458;-82
2023/06/24 07:56:40;;;;;;;10.93;7.63;;;23.50;99.90;;;;;;5078422;28;20523;-82
2023/06/24 07:59:07;;;;;;;10.30;8.67;;;23.50;90.60;;;;;;5077890;28;20479;-83
2023/06/24 08:01:33;;;;;;;11.47;8.77;;;23.50;99.90;;;;;;5077999;28;20515;-83
2023/06/24 08:04:00;;;;;;;9.23;8.10;;;23.40;99.90;;;;;;5077865;28;20490;-82
2023/06/24 08:06:28;;;;;;;9.77;8.30;;;23.50;99.90;;;;;;5078202;28;20451;-82
2023/06/24 08:08:55;;;;;;;9.50;8.60;;;23.50;1.00;;;;;;5074652;28;20458;-82
2023/06/24 08:11:22;;;;;;;9.83;7.50;;;23.50;99.90;;;;;;5076536;28;20457;-81
2023/06/24 08:13:51;;;;;;;13.10;8.33;;;23.60;99.90;;;;;;5081508;28;20838;-83
2023/06/24 08:16:18;;;;;;;9.30;7.60;;;23.80;99.90;;;;;;5079536;28;20462;-82
2023/06/24 08:18:46;;;;;;;12.67;8.50;;;23.90;1.00;;;;;;5074881;28;20475;-82
2023/06/24 08:21:12;;;;;;;9.50;7.50;;;24.00;99.90;;;;;;5076651;28;20998;-81
2023/06/24 08:23:41;;;;;;;11.80;8.60;;;24.20;99.90;;;;;;5077463;28;20477;-81
2023/06/24 08:26:08;;;;;;;11.97;9.37;;;24.20;1.00;;;;;;5077327;28;20447;-82
2023/06/24 08:28:35;;;;;;;11.93;9.47;;;24.20;1.00;;;;;;5061536;28;20460;-83
2023/06/24 08:31:02;;;;;;;12.13;10.50;;;24.40;5.80;;;;;;5057079;28;20533;-82
2023/06/24 08:33:28;;;;;;;11.30;9.03;;;24.50;99.90;;;;;;5057763;28;20444;-84
2023/06/24 08:35:55;;;;;;;14.73;11.03;;;24.50;99.90;;;;;;5057222;28;20495;-82
2023/06/24 08:38:22;;;;;;;12.57;9.70;;;24.60;99.90;;;;;;5073683;28;20537;-82
2023/06/24 08:40:52;;;;;;;9.60;8.23;;;24.60;99.90;;;;;;5075007;28;20558;-84
2023/06/24 08:43:19;;;;;;;12.30;9.67;;;24.70;16.00;;;;;;5061323;28;20492;-83
2023/06/24 08:45:46;;;;;;;15.13;9.17;;;24.80;99.90;;;;;;5061084;28;20534;-84
2023/06/24 08:48:15;;;;;;;16.13;12.50;;;24.90;99.90;;;;;;5074964;28;21008;-83
2023/06/24 08:50:47;;;;;;;13.50;9.50;;;24.90;99.90;;;;;;5081915;28;20475;-84
2023/06/24 08:53:15;;;;;;;9.50;6.97;;;24.90;99.90;;;;;;5075223;28;20521;-84
2023/06/24 08:55:45;;;;;;;8.40;6.40;;;25.10;1.00;;;;;;5076017;28;20466;-83
2023/06/24 08:58:14;;;;;;;9.77;7.80;;;25.20;1.00;;;;;;5071310;28;20899;-84
2023/06/24 09:00:42;;;;;;;10.47;9.27;;;25.40;99.90;;;;;;5085099;28;20467;-84
2023/06/24 09:03:09;;;;;;;11.10;8.67;;;25.50;21.20;;;;;;5085986;28;20486;-84
2023/06/24 09:05:36;;;;;;;8.30;6.83;;;25.70;1.00;;;;;;5084916;28;20446;-84
2023/06/24 09:08:03;;;;;;;8.33;6.43;;;25.80;1.00;;;;;;5084369;28;20446;-84
2023/06/24 09:10:32;;;;;;;6.60;5.63;;;26.00;1.00;;;;;;5084199;28;20475;-84
2023/06/24 09:12:59;;;;;;;8.37;5.70;;;26.10;1.00;;;;;;5084330;28;20450;-83
2023/06/24 09:15:31;;;;;;;9.47;6.50;;;26.10;1.00;;;;;;5085756;28;20526;-83
2023/06/24 09:17:57;;;;;;;7.87;5.90;;;26.10;1.00;;;;;;5075386;28;20796;-83
2023/06/24 09:20:26;;;;;;;6.83;5.80;;;26.30;1.00;;;;;;5068228;28;20499;-85
2023/06/24 09:22:58;;;;;;;8.83;6.70;;;26.50;1.00;;;;;;5065060;28;20536;-84
2023/06/24 09:28:18;;;;;;;12.90;6.00;;;26.70;1.00;;;;;;5102258;27;1318182;-81
2023/06/24 09:30:44;;;;;;;8.73;5.27;;;26.60;1.00;;;;;;5137920;28;20475;-84
2023/06/24 09:33:12;;;;;;;6.63;4.70;;;26.80;1.00;;;;;;5138502;28;20956;-84
2023/06/24 09:35:39;;;;;;;13.33;5.80;;;26.90;1.00;;;;;;5137021;28;20455;-83
2023/06/24 09:38:06;;;;;;;8.47;5.50;;;26.90;1.00;;;;;;5135848;28;20888;-82
2023/06/24 09:40:37;;;;;;;11.67;5.73;;;26.90;1.00;;;;;;5135897;28;20543;-84
2023/06/24 09:43:04;;;;;;;5.77;4.50;;;27.10;1.00;;;;;;5135465;28;20460;-81
2023/06/24 09:45:32;;;;;;;7.30;5.97;;;27.40;1.00;;;;;;5135525;28;20462;-83
2023/06/24 09:47:59;;;;;;;8.57;5.20;;;27.40;1.00;;;;;;5136111;28;20487;-82
2023/06/24 09:50:26;;;;;;;6.40;4.83;;;27.60;1.00;;;;;;5135924;28;20460;-84
2023/06/24 09:52:57;;;;;;;5.67;4.50;;;27.70;1.00;;;;;;5135948;28;20458;-84
2023/06/24 09:55:26;;;;;;;9.80;4.60;;;27.90;1.00;;;;;;5135547;28;21006;-83
2023/06/24 09:57:54;;;;;;;4.40;3.57;;;27.90;1.00;;;;;;5135427;28;20968;-84
2023/06/24 10:00:22;;;;;;;6.90;5.37;;;27.90;1.00;;;;;;5137032;28;20457;-84
2023/06/24 10:02:50;;;;;;;5.83;4.27;;;27.90;99.90;;;;;;5135504;28;20531;-84
2023/06/24 10:05:17;;;;;;;4.27;3.73;;;28.20;99.90;;;;;;5144545;28;20531;-83
2023/06/24 10:07:44;;;;;;;6.47;4.80;;;28.30;99.90;;;;;;5147963;28;20504;-83
2023/06/24 10:10:11;;;;;;;7.47;4.90;;;28.30;99.90;;;;;;5145877;28;20506;-83
2023/06/24 10:12:39;;;;;;;4.30;3.50;;;28.40;99.90;;;;;;5136333;28;20449;-83
2023/06/24 10:15:07;;;;;;;10.23;4.07;;;28.50;99.90;;;;;;5135703;28;20531;-81
2023/06/24 10:17:34;;;;;;;4.40;4.00;;;28.80;1.00;;;;;;5135818;28;20539;-82
2023/06/24 10:20:06;;;;;;;5.77;4.13;;;28.80;99.90;;;;;;5136235;28;20849;-82
2023/06/24 10:22:35;;;;;;;5.47;3.60;;;28.90;99.90;;;;;;5137813;28;20433;-84
2023/06/24 10:25:03;;;;;;;10.00;3.87;;;29.10;99.90;;;;;;5136376;28;20463;-85
2023/06/24 10:27:33;;;;;;;5.53;3.70;;;29.20;99.90;;;;;;5135361;28;20515;-83
2023/06/24 10:30:04;;;;;;;4.30;3.30;;;29.10;99.90;;;;;;5137317;28;20480;-84
2023/06/24 10:32:42;;;;;;;5.20;2.80;;;29.50;99.90;;;;;;5136641;28;20928;-82
2023/06/24 10:35:24;;;;;;;4.43;2.90;;;29.60;99.90;;;;;;5135025;28;20908;-83
2023/06/24 10:37:56;;;;;;;6.30;3.67;;;30.20;99.90;;;;;;5130495;28;20456;-82
2023/06/24 10:40:36;;;;;;;8.80;3.40;;;30.70;99.90;;;;;;5120139;28;20468;-84
2023/06/24 10:43:03;;;;;;;4.97;3.60;;;31.60;99.90;;;;;;5120382;28;20448;-82
2023/06/24 10:45:30;;;;;;;3.60;2.90;;;32.00;99.90;;;;;;5119732;28;20462;-82
2023/06/24 10:47:59;;;;;;;4.07;3.63;;;32.50;99.90;;;;;;5119604;28;20511;-81
2023/06/24 10:50:27;;;;;;;4.70;3.23;;;32.20;99.90;;;;;;5119764;28;20469;-82
2023/06/24 10:52:55;;;;;;;4.40;3.40;;;32.80;99.90;;;;;;5119511;28;20516;-83
2023/06/24 10:55:24;;;;;;;4.13;3.57;;;33.30;99.90;;;;;;5120406;28;20453;-83
2023/06/24 10:57:51;;;;;;;4.90;3.63;;;33.70;99.90;;;;;;5120358;28;20870;-81
2023/06/24 11:00:18;;;;;;;5.87;3.80;;;33.70;99.90;;;;;;5120430;28;20773;-83
2023/06/24 11:02:46;;;;;;;4.77;3.53;;;33.50;99.90;;;;;;5120687;28;20453;-82
2023/06/24 11:05:12;;;;;;;4.07;2.93;;;33.50;99.90;;;;;;5120033;28;20439;-81
2023/06/24 11:07:41;;;;;;;4.50;3.30;;;33.70;99.90;;;;;;5120222;28;20591;-81
2023/06/24 11:10:10;;;;;;;4.70;3.03;;;33.40;99.90;;;;;;5122976;28;20473;-84
2023/06/24 11:12:39;;;;;;;4.90;3.50;;;33.50;99.90;;;;;;5113962;28;20457;-83
2023/06/24 11:15:10;;;;;;;3.60;2.93;;;33.70;99.90;;;;;;5116066;28;20519;-80
2023/06/24 11:17:38;;;;;;;4.50;3.37;;;33.90;99.90;;;;;;5113059;28;20796;-83
2023/06/24 11:20:09;;;;;;;11.63;4.73;;;33.90;99.90;;;;;;5108291;28;20502;-84
2023/06/24 11:22:36;;;;;;;6.27;5.33;;;33.80;99.90;;;;;;5113044;28;20461;-82
2023/06/24 11:25:04;;;;;;;4.60;3.43;;;33.50;99.90;;;;;;5118180;28;20523;-81
2023/06/24 11:27:32;;;;;;;3.73;2.80;;;33.20;99.90;;;;;;5119328;28;20488;-83
2023/06/24 11:30:02;;;;;;;4.33;3.10;;;33.40;99.90;;;;;;5134614;22;20589;-82
2023/06/24 11:32:36;;;;;;;6.50;3.60;;;33.00;99.90;;;;;;5083961;28;20877;-80
2023/06/24 11:35:04;;;;;;;4.80;2.70;;;33.00;99.90;;;;;;5079633;28;20470;-81
2023/06/24 11:37:33;;;;;;;3.67;2.60;;;33.10;99.90;;;;;;5076808;28;20458;-81
2023/06/24 11:40:05;;;;;;;5.53;2.90;;;33.00;99.90;;;;;;5073678;28;20493;-81
2023/06/24 11:42:32;;;;;;;4.93;3.57;;;33.00;99.90;;;;;;5087049;28;20451;-81
2023/06/24 11:45:03;;;;;;;3.83;3.20;;;32.70;99.90;;;;;;5086695;28;20454;-81
2023/06/24 11:47:34;;;;;;;3.50;2.53;;;32.60;99.90;;;;;;5087239;28;20491;-82
2023/06/24 11:50:02;;;;;;;6.00;3.03;;;32.50;99.90;;;;;;5085833;28;20463;-82
2023/06/24 11:52:38;;;;;;;4.63;3.07;;;32.30;99.90;;;;;;5089967;28;20492;-82
2023/06/24 11:55:18;;;;;;;4.10;3.00;;;32.30;99.90;;;;;;5088294;28;20868;-80
2023/06/24 11:57:52;;;;;;;4.37;2.60;;;32.40;99.90;;;;;;5088750;28;20514;-82
2023/06/24 12:00:23;;;;;;;4.20;3.00;;;32.60;99.90;;;;;;5087012;28;20474;-82
2023/06/24 12:02:57;;;;;;;3.87;2.67;;;32.80;99.90;;;;;;5090635;28;20482;-83
2023/06/24 12:05:28;;;;;;;3.87;2.83;;;32.70;99.90;;;;;;5089522;28;20518;-82
2023/06/24 12:07:56;;;;;;;3.57;3.10;;;32.60;99.90;;;;;;5085076;28;20475;-82
2023/06/24 12:10:25;;;;;;;6.60;3.00;;;32.90;99.90;;;;;;5089057;28;20494;-82
2023/06/24 12:12:52;;;;;;;5.20;3.30;;;32.70;99.90;;;;;;5095627;28;20462;-81
2023/06/24 12:15:19;;;;;;;3.13;2.60;;;33.10;99.90;;;;;;5100622;28;20518;-80
2023/06/24 12:17:46;;;;;;;3.33;2.50;;;33.20;99.90;;;;;;5103531;28;20534;-81
2023/06/24 12:20:14;;;;;;;3.73;3.23;;;33.40;99.90;;;;;;5089378;28;20506;-81
2023/06/24 12:22:41;;;;;;;3.63;2.80;;;33.30;99.90;;;;;;5088399;28;20904;-81
2023/06/24 12:25:09;;;;;;;4.20;3.13;;;33.30;99.90;;;;;;5079982;28;20459;-81
2023/06/24 12:27:39;;;;;;;5.00;2.90;;;33.30;99.90;;;;;;5086172;28;20471;-80
2023/06/24 12:30:08;;;;;;;3.60;2.37;;;33.10;99.90;;;;;;5077114;28;20494;-81
2023/06/24 12:32:35;;;;;;;3.87;2.60;;;33.30;99.90;;;;;;5084375;28;20481;-79
2023/06/24 12:35:03;;;;;;;5.37;3.00;;;33.40;99.90;;;;;;5084780;28;21012;-81
2023/06/24 12:37:32;;;;;;;4.47;3.17;;;33.50;99.90;;;;;;5087562;28;20471;-80
2023/06/24 12:39:59;;;;;;;4.50;3.10;;;33.70;99.90;;;;;;5084384;28;20525;-79
2023/06/24 12:42:26;;;;;;;3.53;2.97;;;33.80;99.90;;;;;;5083331;28;20451;-79
2023/06/24 12:44:54;;;;;;;3.80;2.80;;;34.10;99.90;;;;;;5081004;28;20478;-79
2023/06/24 12:47:21;;;;;;;4.40;2.93;;;34.00;99.90;;;;;;5081864;28;20489;-78
2023/06/24 12:49:48;;;;;;;3.77;2.57;;;34.10;99.90;;;;;;5085740;28;20483;-80
2023/06/24 12:52:15;;;;;;;3.63;2.73;;;34.20;99.90;;;;;;5083526;28;20451;-81
2023/06/24 12:54:43;;;;;;;4.13;2.83;;;34.10;99.90;;;;;;5085248;28;20451;-82
2023/06/24 12:57:10;;;;;;;4.03;2.80;;;34.10;99.90;;;;;;5082326;28;21172;-80